Quimili, Argentina
Current Conditions -  °F | °C
As of 8:00 PM on Friday 24 Oct 2014 (Local Time) from SANT Reporting Station
Clear Clear  
Wind Chill: 91°   Ceiling: Unl
Heat Index: 91°   Visibility: 5mi
Dew Point: 59°   Wind: 7mph
Humidity: 34%   Direction: 50°NE
Pressure: 29.85"   Gusts: NA
Location:  27.63°S, 62.42°W
Report Text: SANT 242300Z 05006KT 8000 NSC 33/15 Q1011
Loading
Personal Weather Stations






























Interactive Weather Map New forecast layout! Learn more

10-Day Weather Forecast

Advertisements
Track Severe Weather on mobile